createdAt,value
2023-05-22T00:00:06.964Z,1.56
2023-05-22T00:05:23.000Z,1.6
2023-05-22T00:10:39.908Z,1.64
2023-05-22T00:15:53.572Z,2.01
2023-05-22T01:03:21.886Z,1.59
2023-05-22T01:08:36.751Z,1.53
2023-05-22T01:13:45.289Z,1.54
2023-05-22T01:19:01.003Z,1.48
2023-05-22T01:24:16.734Z,1.56
2023-05-22T01:29:32.496Z,1.59
2023-05-22T01:34:50.565Z,1.66
2023-05-22T01:40:03.273Z,1.99
2023-05-22T01:45:17.137Z,1.58
2023-05-22T01:50:33.316Z,1.83
2023-05-22T01:55:49.787Z,1.76
2023-05-22T02:01:06.034Z,1.62
2023-05-22T02:06:21.804Z,1.75
2023-05-22T02:11:37.253Z,1.59
2023-05-22T02:16:53.899Z,1.94
2023-05-22T02:22:09.244Z,1.42
2023-05-22T02:27:23.859Z,1.45
2023-05-22T02:32:39.280Z,1.95
2023-05-22T02:37:53.932Z,1.62
2023-05-22T02:43:08.784Z,1.52
2023-05-22T02:48:23.653Z,1.86
2023-05-22T02:53:38.670Z,1.59
2023-05-22T02:58:54.437Z,1.82
2023-05-22T03:04:10.808Z,1.88
2023-05-22T03:09:26.108Z,1.81
2023-05-22T03:14:42.973Z,1.77
2023-05-22T03:18:52.411Z,1.81
2023-05-22T03:24:07.659Z,1.86
2023-05-22T03:29:22.558Z,1.67
2023-05-22T03:34:37.159Z,1.67
2023-05-22T03:39:52.928Z,2.14
2023-05-22T03:45:08.751Z,1.68
2023-05-22T03:50:23.311Z,1.81
2023-05-22T03:55:39.195Z,1.68
2023-05-22T04:00:55.214Z,2.01
2023-05-22T04:06:11.012Z,1.65
2023-05-22T04:11:27.498Z,2.07
2023-05-22T04:16:41.607Z,1.74
2023-05-22T04:21:56.279Z,1.57
2023-05-22T04:27:11.070Z,1.84
2023-05-22T04:32:26.792Z,1.67
2023-05-22T04:37:41.299Z,2.13
2023-05-22T04:42:56.708Z,1.59
2023-05-22T04:48:11.218Z,1.66
2023-05-22T04:53:27.723Z,1.61
2023-05-22T04:58:43.451Z,1.66
2023-05-22T05:03:58.796Z,1.92
2023-05-22T05:09:14.993Z,1.79
2023-05-22T05:14:29.902Z,1.82
2023-05-22T05:19:44.487Z,1.9
2023-05-22T05:25:00.755Z,1.7
2023-05-22T05:51:19.408Z,2.14
2023-05-22T05:56:35.366Z,2.25
2023-05-22T06:01:51.335Z,2.34
2023-05-22T06:07:06.016Z,2.45
2023-05-22T06:12:20.823Z,2.58
2023-05-22T06:17:37.519Z,2.83
2023-05-22T06:22:52.122Z,2.69
2023-05-22T06:28:08.144Z,2.46
2023-05-22T06:33:25.226Z,2.86
2023-05-22T06:38:40.020Z,2.83
2023-05-22T06:43:55.751Z,2.56
2023-05-22T06:49:11.633Z,2.56
2023-05-22T06:54:27.284Z,2.82
2023-05-22T06:59:43.101Z,2.97
2023-05-22T07:04:57.937Z,2.69
2023-05-22T07:10:14.452Z,2.74
2023-05-22T07:15:29.903Z,2.51
2023-05-22T07:20:44.591Z,2.51
2023-05-22T07:26:00.789Z,2.41
2023-05-22T07:31:16.477Z,2.36
2023-05-22T07:36:31.110Z,2.47
2023-05-22T07:41:46.508Z,2.39
2023-05-22T07:47:01.869Z,2.84
2023-05-22T07:52:16.900Z,2.78
2023-05-22T07:57:33.327Z,2.67
2023-05-22T08:02:48.963Z,2.38
2023-05-22T08:08:03.939Z,2.53
2023-05-22T08:13:21.788Z,3.65
2023-05-22T08:18:36.513Z,2.22
2023-05-22T08:23:50.761Z,2.31
2023-05-22T08:29:06.840Z,2.04
2023-05-22T08:34:22.840Z,2
2023-05-22T08:39:38.652Z,1.92
2023-05-22T08:44:54.012Z,2.23
2023-05-22T08:50:09.705Z,1.8
2023-05-22T08:55:26.715Z,1.91
2023-05-22T09:00:43.776Z,1.98
2023-05-22T09:05:57.696Z,1.97
2023-05-22T09:11:12.968Z,2.12
2023-05-22T09:16:28.297Z,1.96
2023-05-22T09:21:44.065Z,1.93
2023-05-22T09:26:59.469Z,2.22
2023-05-22T09:32:14.014Z,1.96
2023-05-22T09:37:30.222Z,2
2023-05-22T09:42:44.816Z,2.31
2023-05-22T09:47:59.327Z,2.08
2023-05-22T10:35:27.634Z,2.28
2023-05-22T10:40:36.805Z,2.19
2023-05-22T10:45:52.584Z,1.96
2023-05-22T10:51:08.146Z,2.1
2023-05-22T10:56:26.156Z,1.69
2023-05-22T11:01:39.481Z,1.93
2023-05-22T11:06:55.777Z,2.04
2023-05-22T11:12:10.823Z,1.96
2023-05-22T11:17:26.728Z,2.2
2023-05-22T11:22:42.349Z,2.1
2023-05-22T11:27:56.836Z,2.31
2023-05-22T11:33:11.900Z,2.17
2023-05-22T11:38:26.326Z,2.09
2023-05-22T11:43:42.999Z,2.19
2023-05-22T11:48:58.617Z,2.15
2023-05-22T11:54:14.585Z,2.27
2023-05-22T11:59:30.290Z,2.3
2023-05-22T12:04:45.160Z,2.02
2023-05-22T12:10:00.742Z,1.94
2023-05-22T12:15:17.072Z,2.02
2023-05-22T12:20:33.328Z,2.18
2023-05-22T12:25:49.387Z,1.97
2023-05-22T12:31:04.448Z,1.88
2023-05-22T12:36:19.920Z,2.22
2023-05-22T12:41:36.040Z,2.31
2023-05-22T12:46:51.675Z,2.69
2023-05-22T12:52:07.120Z,2.47
2023-05-22T12:57:23.162Z,2.42
2023-05-22T13:02:39.006Z,2.22
2023-05-22T13:07:55.009Z,2.53
2023-05-22T13:13:10.720Z,2.33
2023-05-22T13:18:25.640Z,2.39
2023-05-22T13:23:41.413Z,2.41
2023-05-22T13:29:00.821Z,2.25
2023-05-22T13:34:16.361Z,2.29
2023-05-22T13:39:30.919Z,2.35
2023-05-22T13:44:47.370Z,2.3
2023-05-22T13:50:02.821Z,2.26
2023-05-22T13:55:18.997Z,2.26
2023-05-22T14:00:34.410Z,2.38
2023-05-22T14:05:51.183Z,2.18
2023-05-22T14:11:05.951Z,2.22
2023-05-22T14:16:21.684Z,2.14
2023-05-22T14:21:37.872Z,2.29
2023-05-22T14:26:54.579Z,2.22
2023-05-22T14:32:09.583Z,2.13
2023-05-22T14:37:25.955Z,2.14
2023-05-22T15:24:56.561Z,1.91
2023-05-22T15:30:05.346Z,1.86
2023-05-22T15:35:19.351Z,1.77
2023-05-22T15:40:34.977Z,1.76
2023-05-22T15:45:49.862Z,1.79
2023-05-22T15:51:05.298Z,1.81
2023-05-22T15:56:21.057Z,1.76
2023-05-22T16:01:38.385Z,1.37
2023-05-22T16:06:54.406Z,1.16
2023-05-22T16:12:09.077Z,1.08
2023-05-22T16:17:24.804Z,1.11
2023-05-22T16:22:49.399Z,1.13
2023-05-22T16:27:55.215Z,1.11
2023-05-22T16:33:11.206Z,1.27
2023-05-22T16:38:27.811Z,1.19
2023-05-22T16:43:43.439Z,1.39
2023-05-22T16:48:58.536Z,1.31
2023-05-22T16:54:15.116Z,1.29
2023-05-22T16:59:31.459Z,1.35
2023-05-22T17:04:45.773Z,1.19
2023-05-22T17:10:02.343Z,1.4
2023-05-22T17:15:16.855Z,1.73
2023-05-22T17:20:33.286Z,1.56
2023-05-22T17:25:48.265Z,1.07
2023-05-22T17:31:03.388Z,1.61
2023-05-22T17:36:21.148Z,1.63
2023-05-22T17:41:36.246Z,2.03
2023-05-22T17:46:51.028Z,1.48
2023-05-22T17:52:06.720Z,1.51
2023-05-22T17:57:23.226Z,1.46
2023-05-22T18:02:38.779Z,1.43
2023-05-22T18:07:53.943Z,1.51
2023-05-22T18:13:10.797Z,1.52
2023-05-22T18:18:27.311Z,1.49
2023-05-22T18:23:42.460Z,1.66
2023-05-22T18:28:57.850Z,1.56
2023-05-22T18:34:12.819Z,1.49
2023-05-22T18:39:27.929Z,1.49
2023-05-22T19:26:57.599Z,1.55
2023-05-22T19:32:06.114Z,1.62
2023-05-22T19:37:21.892Z,1.73
2023-05-22T19:42:37.366Z,1.7
2023-05-22T19:47:53.850Z,1.79
2023-05-22T19:53:09.862Z,1.97
2023-05-22T19:58:25.682Z,1.86
2023-05-22T20:03:41.493Z,1.83
2023-05-22T20:08:56.889Z,1.84
2023-05-22T20:14:11.595Z,1.89
2023-05-22T20:19:33.466Z,1.84
2023-05-22T20:24:46.828Z,1.67
2023-05-22T20:30:02.219Z,1.76
2023-05-22T20:35:17.312Z,1.8
2023-05-22T20:40:33.308Z,1.8
2023-05-22T20:45:49.008Z,1.76
2023-05-22T20:51:03.768Z,1.82
2023-05-22T20:56:19.314Z,1.54
2023-05-22T21:01:36.021Z,1.4
2023-05-22T21:06:50.941Z,1.39
2023-05-22T21:12:05.706Z,1.39
2023-05-22T21:17:20.655Z,1.3
2023-05-22T21:22:37.096Z,1.21
2023-05-22T21:27:53.610Z,1.24
2023-05-22T21:33:09.042Z,1.29
2023-05-22T21:38:24.341Z,1.16
2023-05-22T21:43:41.154Z,1.1
2023-05-22T21:48:56.588Z,1.2
2023-05-22T21:54:12.803Z,1.15
2023-05-22T21:59:27.854Z,1.13
2023-05-22T22:04:43.226Z,1.23
2023-05-22T22:09:59.617Z,1.21
2023-05-22T22:15:15.201Z,1.21
2023-05-22T22:20:46.068Z,1.22
2023-05-22T22:25:46.906Z,1.22
2023-05-22T22:31:01.766Z,1.2
2023-05-22T22:36:17.968Z,1.38
2023-05-22T22:41:33.106Z,1.18
2023-05-22T23:29:04.282Z,1.22
2023-05-22T23:34:12.156Z,1.25
2023-05-22T23:39:27.971Z,1.22
2023-05-22T23:44:43.440Z,1.32
2023-05-22T23:49:59.311Z,1.27
2023-05-22T23:55:13.930Z,1.29
